Time;durP1;ratioP1;P1;durP2;ratioP2;P2;SDS_P1;SDS_P2;PMS_P1;PMS_P2;Temp;Humidity;BMP_temperature;BMP_pressure;BME280_temperature;BME280_humidity;BME280_pressure;Samples;Min_cycle;Max_cycle;Signal;HPM_P1;HPM_P2
2022/04/18 00:00:21;;;;;;;;;;;;;;;;;;5045304;28;19924;-61
2022/04/18 00:02:50;;;;;;;;;;;;;;;;;;5045257;28;19920;-62
2022/04/18 00:05:20;;;;;;;;;;;;;;;;;;5045268;28;19998;-61
2022/04/18 00:07:49;;;;;;;;;;;;;;;;;;5029777;28;20383;-61
2022/04/18 00:10:14;;;;;;;;;;;;;;;;;;5025640;28;20031;-61
2022/04/18 00:12:39;;;;;;;;;;;;;;;;;;5045430;28;20361;-61
2022/04/18 00:15:05;;;;;;;;;;;;;;;;;;5044078;28;20346;-61
2022/04/18 00:17:30;;;;;;;;;;;;;;;;;;5025473;28;19928;-62
2022/04/18 00:19:55;;;;;;;;;;;;;;;;;;5014197;28;19960;-62
2022/04/18 00:22:23;;;;;;;;;;;;;;;;;;5043507;28;19925;-62
2022/04/18 00:24:48;;;;;;;;;;;;;;;;;;5023757;28;19974;-62
2022/04/18 00:27:14;;;;;;;;;;;;;;;;;;5043613;28;19916;-61
2022/04/18 00:29:39;;;;;;;;;;;;;;;;;;5026750;28;19925;-63
2022/04/18 00:32:07;;;;;;;;;;;;;;;;;;5024733;28;19928;-61
2022/04/18 00:34:32;;;;;;;;;;;;;;;;;;5024402;28;19974;-61
2022/04/18 00:37:01;;;;;;;;;;;;;;;;;;5044445;28;19917;-61
2022/04/18 00:39:28;;;;;;;;;;;;;;;;;;5029470;28;19986;-63
2022/04/18 00:41:56;;;;;;;;;;;;;;;;;;5035661;28;20338;-61
2022/04/18 00:44:24;;;;;;;;;;;;;;;;;;5024445;28;20002;-63
2022/04/18 00:46:51;;;;;;;;;;;;;;;;;;5042520;28;19968;-61
2022/04/18 00:49:19;;;;;;;;;;;;;;;;;;5044081;28;19971;-63
2022/04/18 00:51:44;;;;;;;;;;;;;;;;;;5024634;28;20327;-61
2022/04/18 00:54:09;;;;;;;;;;;;;;;;;;5042333;28;20535;-63
2022/04/18 00:56:37;;;;;;;;;;;;;;;;;;5047993;28;20359;-61
2022/04/18 00:59:03;;;;;;;;;;;;;;;;;;5028533;28;19920;-63
2022/04/18 01:01:30;;;;;;;;;;;;;;;;;;5043309;28;20530;-63
2022/04/18 01:03:55;;;;;;;;;;;;;;;;;;5011003;28;19924;-61
2022/04/18 01:06:21;;;;;;;;;;;;;;;;;;5045914;28;19921;-63
2022/04/18 01:08:48;;;;;;;;;;;;;;;;;;5044560;28;20015;-63
2022/04/18 01:11:13;;;;;;;;;;;;;;;;;;5044892;28;19916;-63
2022/04/18 01:13:38;;;;;;;;;;;;;;;;;;5043235;28;20248;-63
2022/04/18 01:16:07;;;;;;;;;;;;;;;;;;5044449;28;19921;-62
2022/04/18 01:18:33;;;;;;;;;;;;;;;;;;5023799;28;20579;-63
2022/04/18 01:20:58;;;;;;;;;;;;;;;;;;5043418;28;19973;-62
2022/04/18 01:23:23;;;;;;;;;;;;;;;;;;5022609;28;19947;-62
2022/04/18 01:31:19;;;;;;;;;;;;;;;;;;5042832;28;20279;-62
2022/04/18 01:33:45;;;;;;;;;;;;;;;;;;5043532;28;19958;-63
2022/04/18 01:36:10;;;;;;;;;;;;;;;;;;5017041;28;19916;-63
2022/04/18 01:38:37;;;;;;;;;;;;;;;;;;5029114;28;19921;-63
2022/04/18 01:41:05;;;;;;;;;;;;;;;;;;5043655;28;19935;-62
2022/04/18 01:43:33;;;;;;;;;;;;;;;;;;5029370;28;19920;-61
2022/04/18 01:45:59;;;;;;;;;;;;;;;;;;5021754;28;20417;-63
2022/04/18 01:48:24;;;;;;;;;;;;;;;;;;5007914;28;19939;-63
2022/04/18 01:50:49;;;;;;;;;;;;;;;;;;5042436;28;19951;-63
2022/04/18 01:53:16;;;;;;;;;;;;;;;;;;5011813;28;20019;-63
2022/04/18 01:55:44;;;;;;;;;;;;;;;;;;5016545;28;19931;-63
2022/04/18 01:58:09;;;;;;;;;;;;;;;;;;5022528;28;20479;-64
2022/04/18 02:00:37;;;;;;;;;;;;;;;;;;5010919;28;19924;-63
2022/04/18 02:03:07;;;;;;;;;;;;;;;;;;5042704;28;19920;-63
2022/04/18 02:05:32;;;;;;;;;;;;;;;;;;5023089;28;20027;-63
2022/04/18 02:08:00;;;;;;;;;;;;;;;;;;5042442;28;19920;-62
2022/04/18 02:10:28;;;;;;;;;;;;;;;;;;5032484;28;19932;-62
2022/04/18 02:12:54;;;;;;;;;;;;;;;;;;5013614;28;19916;-61
2022/04/18 02:15:22;;;;;;;;;;;;;;;;;;5043971;28;19920;-64
2022/04/18 02:17:50;;;;;;;;;;;;;;;;;;5045042;28;20806;-62
2022/04/18 02:20:15;;;;;;;;;;;;;;;;;;5027517;28;19917;-62
2022/04/18 02:22:43;;;;;;;;;;;;;;;;;;5042750;28;19924;-62
2022/04/18 02:25:08;;;;;;;;;;;;;;;;;;5041619;28;20001;-62
2022/04/18 02:27:36;;;;;;;;;;;;;;;;;;5043082;28;19921;-62
2022/04/18 02:30:04;;;;;;;;;;;;;;;;;;5025051;28;19924;-62
2022/04/18 02:32:48;;;;;;;;;;;;;;;;;;5021980;28;19920;-63
2022/04/18 02:35:13;;;;;;;;;;;;;;;;;;5025499;28;20383;-63
2022/04/18 02:37:41;;;;;;;;;;;;;;;;;;5039655;28;19934;-62
2022/04/18 02:40:06;;;;;;;;;;;;;;;;;;5024997;28;20875;-62
2022/04/18 02:42:31;;;;;;;;;;;;;;;;;;5022733;28;19966;-62
2022/04/18 02:45:00;;;;;;;;;;;;;;;;;;5028551;28;20375;-62
2022/04/18 02:47:28;;;;;;;;;;;;;;;;;;5042402;28;19916;-61
2022/04/18 02:49:53;;;;;;;;;;;;;;;;;;5006471;28;20388;-62
2022/04/18 02:52:19;;;;;;;;;;;;;;;;;;5042393;28;19917;-61
2022/04/18 02:54:46;;;;;;;;;;;;;;;;;;5021756;28;19924;-62
2022/04/18 02:57:12;;;;;;;;;;;;;;;;;;5023610;28;19973;-62
2022/04/18 02:59:40;;;;;;;;;;;;;;;;;;5042374;28;19967;-62
2022/04/18 03:02:05;;;;;;;;;;;;;;;;;;5021565;28;20003;-62
2022/04/18 03:04:32;;;;;;;;;;;;;;;;;;5026964;28;19916;-62
2022/04/18 03:07:00;;;;;;;;;;;;;;;;;;5042523;28;19928;-62
2022/04/18 03:09:26;;;;;;;;;;;;;;;;;;5022879;28;20003;-61
2022/04/18 03:11:52;;;;;;;;;;;;;;;;;;5042307;28;20050;-62
2022/04/18 03:14:19;;;;;;;;;;;;;;;;;;5022635;28;19944;-61
2022/04/18 03:16:47;;;;;;;;;;;;;;;;;;5021302;28;20309;-62
2022/04/18 03:19:12;;;;;;;;;;;;;;;;;;5041659;28;19925;-61
2022/04/18 03:21:41;;;;;;;;;;;;;;;;;;5021752;28;20322;-61
2022/04/18 03:24:09;;;;;;;;;;;;;;;;;;5041684;28;19917;-62
2022/04/18 03:26:39;;;;;;;;;;;;;;;;;;5042376;28;19916;-62
2022/04/18 03:29:04;;;;;;;;;;;;;;;;;;5012274;28;20050;-64
2022/04/18 03:31:29;;;;;;;;;;;;;;;;;;5032256;28;20299;-62
2022/04/18 03:33:55;;;;;;;;;;;;;;;;;;5022570;28;19920;-63
2022/04/18 03:41:51;;;;;;;;;;;;;;;;;;5027769;28;19963;-64
2022/04/18 03:44:18;;;;;;;;;;;;;;;;;;5020236;28;19931;-60
2022/04/18 03:46:44;;;;;;;;;;;;;;;;;;5040639;28;19921;-61
2022/04/18 03:49:10;;;;;;;;;;;;;;;;;;5023288;28;20114;-61
2022/04/18 03:51:36;;;;;;;;;;;;;;;;;;5026967;28;19920;-60
2022/04/18 03:54:01;;;;;;;;;;;;;;;;;;5040129;28;20012;-62
2022/04/18 03:56:26;;;;;;;;;;;;;;;;;;5028054;28;19920;-63
2022/04/18 03:58:54;;;;;;;;;;;;;;;;;;5029300;28;19923;-63
2022/04/18 04:01:21;;;;;;;;;;;;;;;;;;5045259;28;20011;-62
2022/04/18 04:03:47;;;;;;;;;;;;;;;;;;5027211;28;20559;-62
2022/04/18 04:06:14;;;;;;;;;;;;;;;;;;5026519;28;20814;-62
2022/04/18 04:08:40;;;;;;;;;;;;;;;;;;5044649;28;20065;-62
2022/04/18 04:11:06;;;;;;;;;;;;;;;;;;5024730;28;19964;-61
2022/04/18 04:13:33;;;;;;;;;;;;;;;;;;5021321;28;19920;-60
2022/04/18 04:16:01;;;;;;;;;;;;;;;;;;5044730;28;19947;-60
2022/04/18 04:18:27;;;;;;;;;;;;;;;;;;5030924;28;20904;-61
2022/04/18 04:20:52;;;;;;;;;;;;;;;;;;5024369;28;19920;-60
2022/04/18 04:23:20;;;;;;;;;;;;;;;;;;5044548;28;20003;-61
2022/04/18 04:25:48;;;;;;;;;;;;;;;;;;5044944;28;20011;-61
2022/04/18 04:28:13;;;;;;;;;;;;;;;;;;5044469;28;20001;-62
2022/04/18 04:30:38;;;;;;;;;;;;;;;;;;5044055;28;19927;-61
2022/04/18 04:33:03;;;;;;;;;;;;;;;;;;5044984;28;20379;-61
2022/04/18 04:35:31;;;;;;;;;;;;;;;;;;5025168;28;20383;-62
2022/04/18 04:37:56;;;;;;;;;;;;;;;;;;5043751;28;19916;-61
2022/04/18 04:40:22;;;;;;;;;;;;;;;;;;5033204;28;20338;-62
2022/04/18 04:42:49;;;;;;;;;;;;;;;;;;5029193;28;20039;-62
2022/04/18 04:45:17;;;;;;;;;;;;;;;;;;5043787;28;19992;-62
2022/04/18 04:47:45;;;;;;;;;;;;;;;;;;5044652;28;20047;-62
2022/04/18 04:50:11;;;;;;;;;;;;;;;;;;5029566;28;20484;-62
2022/04/18 04:52:36;;;;;;;;;;;;;;;;;;5013626;28;20023;-62
2022/04/18 04:55:01;;;;;;;;;;;;;;;;;;5029534;28;19928;-62
2022/04/18 04:57:26;;;;;;;;;;;;;;;;;;5044521;28;20079;-62
2022/04/18 04:59:54;;;;;;;;;;;;;;;;;;5023959;28;20007;-62
2022/04/18 05:02:21;;;;;;;;;;;;;;;;;;5026852;28;19916;-63
2022/04/18 05:04:46;;;;;;;;;;;;;;;;;;5030835;28;20468;-62
2022/04/18 05:07:14;;;;;;;;;;;;;;;;;;5030554;28;19974;-62
2022/04/18 05:09:39;;;;;;;;;;;;;;;;;;5030590;28;19920;-63
2022/04/18 05:12:04;;;;;;;;;;;;;;;;;;5028717;28;20036;-62
2022/04/18 05:14:30;;;;;;;;;;;;;;;;;;5035421;28;19926;-62
2022/04/18 05:16:55;;;;;;;;;;;;;;;;;;5044071;28;20063;-63
2022/04/18 05:19:20;;;;;;;;;;;;;;;;;;5045988;28;19921;-62
2022/04/18 05:21:45;;;;;;;;;;;;;;;;;;5034292;28;19916;-63
2022/04/18 05:24:11;;;;;;;;;;;;;;;;;;5044604;28;19997;-63
2022/04/18 05:26:39;;;;;;;;;;;;;;;;;;5045205;28;19947;-63
2022/04/18 05:29:07;;;;;;;;;;;;;;;;;;5024917;28;19924;-63
2022/04/18 05:31:32;;;;;;;;;;;;;;;;;;5044149;28;20815;-63
2022/04/18 05:34:00;;;;;;;;;;;;;;;;;;5013901;28;20103;-62
2022/04/18 05:36:29;;;;;;;;;;;;;;;;;;5043283;28;20392;-61
2022/04/18 05:38:54;;;;;;;;;;;;;;;;;;5029147;28;20006;-62
2022/04/18 05:41:19;;;;;;;;;;;;;;;;;;5022859;28;20104;-61
2022/04/18 05:43:46;;;;;;;;;;;;;;;;;;5022257;28;19921;-62
2022/04/18 05:46:14;;;;;;;;;;;;;;;;;;5017172;28;19962;-62
2022/04/18 05:48:42;;;;;;;;;;;;;;;;;;5043959;28;19939;-62
2022/04/18 05:51:07;;;;;;;;;;;;;;;;;;5042986;28;19975;-62
2022/04/18 05:53:33;;;;;;;;;;;;;;;;;;5012656;28;19999;-62
2022/04/18 05:56:03;;;;;;;;;;;;;;;;;;5022645;28;19925;-62
2022/04/18 05:58:29;;;;;;;;;;;;;;;;;;5043676;28;19993;-62
2022/04/18 06:00:57;;;;;;;;;;;;;;;;;;5041784;28;20363;-63
2022/04/18 06:03:22;;;;;;;;;;;;;;;;;;5026021;28;19952;-62
2022/04/18 06:05:52;;;;;;;;;;;;;;;;;;5028215;28;19924;-62
2022/04/18 06:08:18;;;;;;;;;;;;;;;;;;5010789;28;19928;-63
2022/04/18 06:10:43;;;;;;;;;;;;;;;;;;5041837;28;19959;-62
2022/04/18 06:13:09;;;;;;;;;;;;;;;;;;5025161;28;19959;-65
2022/04/18 06:15:37;;;;;;;;;;;;;;;;;;5026635;28;19920;-62
2022/04/18 06:18:05;;;;;;;;;;;;;;;;;;5042276;28;20371;-65
2022/04/18 06:20:30;;;;;;;;;;;;;;;;;;5026904;28;19931;-66
2022/04/18 06:22:55;;;;;;;;;;;;;;;;;;5024102;28;19941;-64
2022/04/18 06:25:20;;;;;;;;;;;;;;;;;;5010048;28;19920;-63
2022/04/18 06:27:48;;;;;;;;;;;;;;;;;;5022714;28;19960;-64
2022/04/18 06:30:13;;;;;;;;;;;;;;;;;;5026342;28;21774;-65
2022/04/18 06:32:41;;;;;;;;;;;;;;;;;;5032656;28;19916;-64
2022/04/18 06:35:07;;;;;;;;;;;;;;;;;;5042141;28;19928;-64
2022/04/18 06:37:35;;;;;;;;;;;;;;;;;;5042230;28;19936;-64
2022/04/18 06:40:00;;;;;;;;;;;;;;;;;;5040459;28;19943;-63
2022/04/18 06:42:26;;;;;;;;;;;;;;;;;;5040264;28;19920;-63
2022/04/18 06:44:51;;;;;;;;;;;;;;;;;;5026362;28;19916;-64
2022/04/18 06:47:17;;;;;;;;;;;;;;;;;;5040544;28;20266;-64
2022/04/18 06:49:42;;;;;;;;;;;;;;;;;;5041249;28;19921;-63
2022/04/18 06:52:07;;;;;;;;;;;;;;;;;;5040731;28;19970;-63
2022/04/18 06:54:36;;;;;;;;;;;;;;;;;;5041732;28;19929;-64
2022/04/18 06:57:01;;;;;;;;;;;;;;;;;;5026403;28;20287;-63
2022/04/18 06:59:27;;;;;;;;;;;;;;;;;;5023461;28;21710;-64
2022/04/18 07:01:52;;;;;;;;;;;;;;;;;;5044954;28;19999;-63
2022/04/18 07:04:21;;;;;;;;;;;;;;;;;;5021054;28;21871;-64
2022/04/18 07:06:46;;;;;;;;;;;;;;;;;;5040976;28;19924;-63
2022/04/18 07:09:14;;;;;;;;;;;;;;;;;;5011506;28;19916;-64
2022/04/18 07:11:42;;;;;;;;;;;;;;;;;;5040723;28;19944;-64
2022/04/18 07:14:07;;;;;;;;;;;;;;;;;;5022234;28;19931;-64
2022/04/18 07:16:35;;;;;;;;;;;;;;;;;;5021575;28;19917;-66
2022/04/18 07:19:00;;;;;;;;;;;;;;;;;;5026548;28;19925;-64
2022/04/18 07:21:25;;;;;;;;;;;;;;;;;;5007991;28;20497;-64
2022/04/18 07:23:51;;;;;;;;;;;;;;;;;;5019161;28;19920;-65
2022/04/18 07:26:19;;;;;;;;;;;;;;;;;;5041415;28;19920;-64
2022/04/18 07:28:44;;;;;;;;;;;;;;;;;;5007829;28;19927;-65
2022/04/18 07:31:09;;;;;;;;;;;;;;;;;;5010510;28;19920;-64
2022/04/18 07:33:34;;;;;;;;;;;;;;;;;;5025998;28;20700;-64
2022/04/18 07:36:00;;;;;;;;;;;;;;;;;;5029356;28;20465;-63
2022/04/18 07:41:10;;;;;;;;;;;;;;;;;;5046271;28;20462;-65
2022/04/18 07:43:35;;;;;;;;;;;;;;;;;;5024478;28;19924;-64
2022/04/18 07:46:00;;;;;;;;;;;;;;;;;;5029442;28;20515;-64
2022/04/18 07:48:28;;;;;;;;;;;;;;;;;;5026648;28;19999;-64
2022/04/18 07:53:39;;;;;;;;;;;;;;;;;;5028813;28;19950;-64
2022/04/18 07:56:10;;;;;;;;;;;;;;;;;;5025793;28;19920;-64
2022/04/18 07:58:35;;;;;;;;;;;;;;;;;;5044915;28;21883;-65
2022/04/18 08:01:02;;;;;;;;;;;;;;;;;;5045184;28;19921;-64
2022/04/18 08:03:30;;;;;;;;;;;;;;;;;;5045594;28;19920;-64
2022/04/18 08:06:00;;;;;;;;;;;;;;;;;;5025209;28;19920;-64
2022/04/18 08:08:26;;;;;;;;;;;;;;;;;;5044740;28;19944;-64
2022/04/18 08:10:51;;;;;;;;;;;;;;;;;;5044805;28;20070;-63
2022/04/18 08:13:16;;;;;;;;;;;;;;;;;;5045514;28;19920;-64
2022/04/18 08:15:42;;;;;;;;;;;;;;;;;;5014051;28;20800;-64
2022/04/18 08:18:07;;;;;;;;;;;;;;;;;;5014142;28;19927;-64
2022/04/18 08:20:32;;;;;;;;;;;;;;;;;;5029719;28;19924;-64
2022/04/18 08:22:58;;;;;;;;;;;;;;;;;;5036587;28;20358;-64
2022/04/18 08:25:23;;;;;;;;;;;;;;;;;;5024342;28;20007;-65
2022/04/18 08:27:49;;;;;;;;;;;;;;;;;;5045218;28;20545;-64
2022/04/18 08:30:14;;;;;;;;;;;;;;;;;;5044067;28;19928;-63
2022/04/18 08:32:39;;;;;;;;;;;;;;;;;;5028886;28;19927;-64
2022/04/18 08:35:04;;;;;;;;;;;;;;;;;;5044057;28;19916;-65
2022/04/18 08:37:30;;;;;;;;;;;;;;;;;;5044489;28;19924;-65
2022/04/18 08:39:55;;;;;;;;;;;;;;;;;;5025164;28;19958;-64
2022/04/18 08:42:24;;;;;;;;;;;;;;;;;;5044328;28;19920;-65
2022/04/18 08:44:50;;;;;;;;;;;;;;;;;;5023404;28;19912;-65
2022/04/18 08:52:46;;;;;;;;;;;;;;;;;;5043558;28;19920;-65
2022/04/18 08:55:11;;;;;;;;;;;;;;;;;;5042373;28;19977;-65
2022/04/18 08:57:37;;;;;;;;;;;;;;;;;;5030953;28;20038;-68
2022/04/18 09:00:02;;;;;;;;;;;;;;;;;;5028008;28;19916;-65
2022/04/18 09:02:30;;;;;;;;;;;;;;;;;;5026663;28;19920;-64
2022/04/18 09:04:56;;;;;;;;;;;;;;;;;;5024823;28;19920;-66
2022/04/18 09:07:23;;;;;;;;;;;;;;;;;;5025781;28;19916;-66
2022/04/18 09:09:54;;;;;;;;;;;;;;;;;;5035451;28;19920;-65
2022/04/18 09:12:19;;;;;;;;;;;;;;;;;;5024634;28;19924;-65
2022/04/18 09:14:48;;;;;;;;;;;;;;;;;;5044810;28;19917;-65
2022/04/18 09:17:13;;;;;;;;;;;;;;;;;;5032733;28;20023;-64
2022/04/18 09:19:38;;;;;;;;;;;;;;;;;;5029495;28;19966;-66
2022/04/18 09:22:05;;;;;;;;;;;;;;;;;;5042586;28;19976;-64
2022/04/18 09:24:34;;;;;;;;;;;;;;;;;;5027796;28;19917;-65
2022/04/18 09:26:59;;;;;;;;;;;;;;;;;;5024714;28;19999;-64
2022/04/18 09:29:24;;;;;;;;;;;;;;;;;;5033231;28;19924;-65
2022/04/18 09:31:50;;;;;;;;;;;;;;;;;;5023081;28;20440;-65
2022/04/18 09:34:15;;;;;;;;;;;;;;;;;;5029762;28;19917;-65
2022/04/18 09:36:40;;;;;;;;;;;;;;;;;;5041774;28;19920;-66
2022/04/18 09:39:06;;;;;;;;;;;;;;;;;;5025580;28;19921;-65
2022/04/18 09:41:31;;;;;;;;;;;;;;;;;;5043079;28;19994;-65
2022/04/18 09:43:57;;;;;;;;;;;;;;;;;;5024192;28;20829;-64
2022/04/18 09:46:24;;;;;;;;;;;;;;;;;;5039650;28;19927;-65
2022/04/18 09:48:52;;;;;;;;;;;;;;;;;;5042572;28;20272;-64
2022/04/18 09:51:18;;;;;;;;;;;;;;;;;;5024384;28;19930;-65
2022/04/18 09:53:46;;;;;;;;;;;;;;;;;;5017438;28;19917;-65
2022/04/18 09:56:14;;;;;;;;;;;;;;;;;;5022745;28;19923;-65
2022/04/18 09:58:39;;;;;;;;;;;;;;;;;;5011599;28;19924;-65
2022/04/18 10:01:04;;;;;;;;;;;;;;;;;;5040516;28;19921;-66
2022/04/18 10:03:39;;;;;;;;;;;;;;;;;;5042374;28;19916;-65
2022/04/18 10:06:04;;;;;;;;;;;;;;;;;;5027246;28;19982;-65
2022/04/18 10:08:30;;;;;;;;;;;;;;;;;;5012200;28;19916;-65
2022/04/18 10:10:58;;;;;;;;;;;;;;;;;;5041156;28;19924;-65
2022/04/18 10:13:26;;;;;;;;;;;;;;;;;;5018150;28;20378;-66
2022/04/18 10:15:53;;;;;;;;;;;;;;;;;;5022082;28;19917;-65
2022/04/18 10:18:23;;;;;;;;;;;;;;;;;;5024668;28;19921;-64
2022/04/18 10:20:51;;;;;;;;;;;;;;;;;;5032831;28;19921;-66
2022/04/18 10:23:17;;;;;;;;;;;;;;;;;;5042595;28;20486;-65
2022/04/18 10:25:42;;;;;;;;;;;;;;;;;;5042545;28;21736;-64
2022/04/18 10:28:08;;;;;;;;;;;;;;;;;;5026437;28;20329;-65
2022/04/18 10:30:34;;;;;;;;;;;;;;;;;;5027051;28;19959;-66
2022/04/18 10:32:59;;;;;;;;;;;;;;;;;;5026832;28;19921;-64
2022/04/18 10:35:24;;;;;;;;;;;;;;;;;;5042026;28;19991;-66
2022/04/18 10:37:50;;;;;;;;;;;;;;;;;;5011868;28;19968;-65
2022/04/18 10:40:15;;;;;;;;;;;;;;;;;;5017115;28;19920;-67
2022/04/18 10:42:43;;;;;;;;;;;;;;;;;;5021428;28;19921;-65
2022/04/18 10:45:11;;;;;;;;;;;;;;;;;;5028461;28;19982;-64
2022/04/18 10:47:38;;;;;;;;;;;;;;;;;;5031930;28;19958;-64
2022/04/18 10:50:04;;;;;;;;;;;;;;;;;;5032877;28;20065;-64
2022/04/18 10:52:29;;;;;;;;;;;;;;;;;;5010578;28;20001;-64
2022/04/18 10:54:54;;;;;;;;;;;;;;;;;;5033030;28;19928;-64
2022/04/18 10:57:22;;;;;;;;;;;;;;;;;;5023963;28;19917;-65
2022/04/18 10:59:47;;;;;;;;;;;;;;;;;;5006345;28;19994;-65
2022/04/18 11:02:13;;;;;;;;;;;;;;;;;;5004920;28;20002;-66
2022/04/18 11:04:40;;;;;;;;;;;;;;;;;;5021930;28;19979;-66
2022/04/18 11:07:06;;;;;;;;;;;;;;;;;;5042699;28;19931;-66
2022/04/18 11:09:32;;;;;;;;;;;;;;;;;;5028184;28;19920;-65
2022/04/18 11:12:00;;;;;;;;;;;;;;;;;;5042613;28;20718;-64
2022/04/18 11:14:26;;;;;;;;;;;;;;;;;;5041468;28;20694;-65
2022/04/18 11:16:51;;;;;;;;;;;;;;;;;;5027098;28;19924;-64
2022/04/18 11:19:19;;;;;;;;;;;;;;;;;;5031156;28;20004;-65
2022/04/18 11:21:47;;;;;;;;;;;;;;;;;;5025926;28;20028;-65
2022/04/18 11:24:17;;;;;;;;;;;;;;;;;;5042066;28;19916;-64
2022/04/18 11:26:42;;;;;;;;;;;;;;;;;;5041362;28;19952;-66
2022/04/18 11:29:09;;;;;;;;;;;;;;;;;;5042543;28;20415;-65
2022/04/18 11:31:34;;;;;;;;;;;;;;;;;;5025553;28;20473;-66
2022/04/18 11:34:02;;;;;;;;;;;;;;;;;;5041344;28;20015;-66
2022/04/18 11:36:27;;;;;;;;;;;;;;;;;;5022544;28;19976;-64
2022/04/18 11:38:52;;;;;;;;;;;;;;;;;;5040413;28;20454;-65
2022/04/18 11:41:18;;;;;;;;;;;;;;;;;;5039291;28;19952;-65
2022/04/18 11:43:43;;;;;;;;;;;;;;;;;;5040206;28;19944;-65
2022/04/18 11:46:09;;;;;;;;;;;;;;;;;;5030312;28;20264;-65
2022/04/18 11:48:37;;;;;;;;;;;;;;;;;;5020993;28;19921;-64
2022/04/18 11:51:02;;;;;;;;;;;;;;;;;;5040994;28;19929;-65
2022/04/18 11:53:30;;;;;;;;;;;;;;;;;;5039717;28;20398;-65
2022/04/18 11:55:56;;;;;;;;;;;;;;;;;;5004176;28;19935;-64
2022/04/18 11:58:25;;;;;;;;;;;;;;;;;;5016493;28;20447;-65
2022/04/18 12:09:03;;;;;;;;;;;;;;;;;;5025514;28;19947;-64
2022/04/18 12:11:28;;;;;;;;;;;;;;;;;;5005224;28;20636;-64
2022/04/18 12:13:54;;;;;;;;;;;;;;;;;;5026778;28;19924;-63
2022/04/18 12:16:19;;;;;;;;;;;;;;;;;;5008795;28;19986;-63
2022/04/18 12:18:45;;;;;;;;;;;;;;;;;;5026294;28;20376;-64
2022/04/18 12:21:11;;;;;;;;;;;;;;;;;;5044666;28;19930;-64
2022/04/18 12:23:36;;;;;;;;;;;;;;;;;;5045026;28;20846;-62
2022/04/18 12:26:02;;;;;;;;;;;;;;;;;;5023996;28;19974;-63
2022/04/18 12:28:30;;;;;;;;;;;;;;;;;;5025175;28;20039;-62
2022/04/18 12:30:55;;;;;;;;;;;;;;;;;;5042982;28;19931;-64
2022/04/18 12:33:22;;;;;;;;;;;;;;;;;;5034777;28;20188;-64
2022/04/18 12:35:48;;;;;;;;;;;;;;;;;;5043973;28;21747;-64
2022/04/18 12:38:15;;;;;;;;;;;;;;;;;;5043780;28;19928;-64
2022/04/18 12:40:41;;;;;;;;;;;;;;;;;;5043057;28;19924;-64
2022/04/18 12:43:09;;;;;;;;;;;;;;;;;;5043880;28;19936;-64
2022/04/18 12:45:34;;;;;;;;;;;;;;;;;;5028484;28;19932;-64
2022/04/18 12:48:03;;;;;;;;;;;;;;;;;;5044769;28;19971;-64
2022/04/18 12:50:29;;;;;;;;;;;;;;;;;;5022454;28;20622;-64
2022/04/18 12:52:55;;;;;;;;;;;;;;;;;;5025251;28;19926;-64
2022/04/18 12:55:22;;;;;;;;;;;;;;;;;;5012239;28;20003;-64
2022/04/18 12:57:48;;;;;;;;;;;;;;;;;;5014262;28;20070;-63
2022/04/18 13:00:14;;;;;;;;;;;;;;;;;;5023032;28;20006;-63
2022/04/18 13:02:40;;;;;;;;;;;;;;;;;;5007786;28;19917;-63
2022/04/18 13:05:05;;;;;;;;;;;;;;;;;;5011951;28;19923;-63
2022/04/18 13:07:33;;;;;;;;;;;;;;;;;;5028950;28;19970;-65
2022/04/18 13:10:01;;;;;;;;;;;;;;;;;;5037857;28;19963;-64
2022/04/18 13:12:27;;;;;;;;;;;;;;;;;;5025267;28;19971;-65
2022/04/18 13:14:52;;;;;;;;;;;;;;;;;;5027205;28;19942;-64
2022/04/18 13:17:17;;;;;;;;;;;;;;;;;;5026813;28;19920;-65
2022/04/18 13:19:43;;;;;;;;;;;;;;;;;;5012892;28;19924;-63
2022/04/18 13:22:08;;;;;;;;;;;;;;;;;;5026265;28;19924;-63
2022/04/18 13:24:34;;;;;;;;;;;;;;;;;;5025029;28;19923;-64
2022/04/18 13:26:59;;;;;;;;;;;;;;;;;;5028299;28;19931;-64
2022/04/18 13:29:24;;;;;;;;;;;;;;;;;;5041744;28;19998;-64
2022/04/18 13:31:50;;;;;;;;;;;;;;;;;;5022724;28;19921;-64
2022/04/18 13:34:16;;;;;;;;;;;;;;;;;;5028388;28;20529;-65
2022/04/18 13:36:41;;;;;;;;;;;;;;;;;;5015119;28;19931;-64
2022/04/18 13:39:07;;;;;;;;;;;;;;;;;;5038253;28;19917;-64
2022/04/18 13:41:32;;;;;;;;;;;;;;;;;;5023896;28;19935;-64
2022/04/18 13:43:58;;;;;;;;;;;;;;;;;;5044226;28;20047;-64
2022/04/18 13:46:23;;;;;;;;;;;;;;;;;;5023817;28;19921;-65
2022/04/18 13:48:49;;;;;;;;;;;;;;;;;;5024891;28;19917;-64
2022/04/18 13:51:15;;;;;;;;;;;;;;;;;;5026740;28;19920;-64
2022/04/18 13:53:40;;;;;;;;;;;;;;;;;;5024081;28;19916;-65
2022/04/18 13:56:06;;;;;;;;;;;;;;;;;;5042778;28;19933;-65
2022/04/18 13:58:32;;;;;;;;;;;;;;;;;;5022394;28;19920;-65
2022/04/18 14:00:58;;;;;;;;;;;;;;;;;;5024310;28;19936;-65
2022/04/18 14:03:25;;;;;;;;;;;;;;;;;;5007966;28;19916;-64
2022/04/18 14:05:51;;;;;;;;;;;;;;;;;;5028016;28;19920;-65
2022/04/18 14:08:16;;;;;;;;;;;;;;;;;;5011392;28;19947;-65
2022/04/18 14:10:41;;;;;;;;;;;;;;;;;;5029622;28;19921;-65
2022/04/18 14:13:08;;;;;;;;;;;;;;;;;;5035860;28;20473;-65
2022/04/18 14:21:01;;;;;;;;;;;;;;;;;;5032794;28;19924;-64
2022/04/18 14:23:26;;;;;;;;;;;;;;;;;;5010742;28;19917;-64
2022/04/18 14:25:52;;;;;;;;;;;;;;;;;;5030723;28;19924;-64
2022/04/18 14:28:17;;;;;;;;;;;;;;;;;;5021631;28;19990;-64
2022/04/18 14:30:44;;;;;;;;;;;;;;;;;;5023500;28;19921;-64
2022/04/18 14:33:09;;;;;;;;;;;;;;;;;;5006706;28;19978;-65
2022/04/18 14:35:35;;;;;;;;;;;;;;;;;;5038348;28;19927;-64
2022/04/18 14:38:02;;;;;;;;;;;;;;;;;;5022602;28;19920;-64
2022/04/18 14:40:30;;;;;;;;;;;;;;;;;;5036350;28;19921;-63
2022/04/18 14:42:55;;;;;;;;;;;;;;;;;;5037983;28;20463;-63
2022/04/18 14:45:20;;;;;;;;;;;;;;;;;;5024582;28;19923;-64
2022/04/18 14:47:46;;;;;;;;;;;;;;;;;;5023163;28;19923;-63
2022/04/18 14:50:11;;;;;;;;;;;;;;;;;;5035622;28;20429;-64
2022/04/18 14:52:37;;;;;;;;;;;;;;;;;;5020619;28;19916;-63
2022/04/18 14:55:02;;;;;;;;;;;;;;;;;;5001264;28;20248;-64
2022/04/18 14:57:30;;;;;;;;;;;;;;;;;;5020373;28;20392;-63
2022/04/18 15:00:00;;;;;;;;;;;;;;;;;;5020358;28;19986;-64
2022/04/18 15:02:25;;;;;;;;;;;;;;;;;;5019697;28;20020;-64
2022/04/18 15:04:51;;;;;;;;;;;;;;;;;;5020343;28;19921;-63
2022/04/18 15:07:18;;;;;;;;;;;;;;;;;;5015521;28;19936;-64
2022/04/18 15:09:44;;;;;;;;;;;;;;;;;;5007401;28;20556;-63
2022/04/18 15:12:09;;;;;;;;;;;;;;;;;;5008990;28;19927;-63
2022/04/18 15:14:35;;;;;;;;;;;;;;;;;;5007539;28;19935;-63
2022/04/18 15:17:00;;;;;;;;;;;;;;;;;;5019213;28;19921;-63
2022/04/18 15:19:26;;;;;;;;;;;;;;;;;;5006593;28;20936;-63
2022/04/18 15:21:51;;;;;;;;;;;;;;;;;;4999276;28;19971;-62
2022/04/18 15:24:16;;;;;;;;;;;;;;;;;;5002606;28;20419;-63
2022/04/18 15:26:42;;;;;;;;;;;;;;;;;;5020434;28;19921;-63
2022/04/18 15:29:07;;;;;;;;;;;;;;;;;;5008444;28;19940;-63
2022/04/18 15:34:17;;;;;;;;;;;;;;;;;;5005486;28;19917;-63
2022/04/18 15:36:42;;;;;;;;;;;;;;;;;;5005147;28;21856;-64
2022/04/18 15:39:07;;;;;;;;;;;;;;;;;;4991258;28;19951;-63
2022/04/18 15:41:35;;;;;;;;;;;;;;;;;;5005469;28;19979;-63
2022/04/18 15:44:00;;;;;;;;;;;;;;;;;;5001600;28;19921;-63
2022/04/18 15:46:28;;;;;;;;;;;;;;;;;;5009316;28;19921;-63
2022/04/18 15:48:54;;;;;;;;;;;;;;;;;;5007429;28;19920;-62
2022/04/18 15:51:19;;;;;;;;;;;;;;;;;;4985091;28;19967;-62
2022/04/18 15:53:45;;;;;;;;;;;;;;;;;;5015544;28;19921;-63
2022/04/18 15:56:10;;;;;;;;;;;;;;;;;;5019189;28;20650;-62
2022/04/18 15:58:38;;;;;;;;;;;;;;;;;;5036455;28;20015;-63
2022/04/18 16:01:04;;;;;;;;;;;;;;;;;;5042236;28;19920;-63
2022/04/18 16:03:31;;;;;;;;;;;;;;;;;;5011747;28;20782;-63
2022/04/18 16:05:59;;;;;;;;;;;;;;;;;;5043570;28;19921;-63
2022/04/18 16:08:28;;;;;;;;;;;;;;;;;;5025541;28;19962;-62
2022/04/18 16:10:56;;;;;;;;;;;;;;;;;;5028613;28;19928;-62
2022/04/18 16:13:21;;;;;;;;;;;;;;;;;;5045539;28;19916;-63
2022/04/18 16:15:47;;;;;;;;;;;;;;;;;;5043974;28;19978;-63
2022/04/18 16:18:12;;;;;;;;;;;;;;;;;;5044341;28;19946;-62
2022/04/18 16:20:37;;;;;;;;;;;;;;;;;;5028633;28;19925;-62
2022/04/18 16:23:08;;;;;;;;;;;;;;;;;;5028704;28;19931;-62
2022/04/18 16:25:34;;;;;;;;;;;;;;;;;;5022661;28;20451;-62
2022/04/18 16:28:02;;;;;;;;;;;;;;;;;;5043274;28;19928;-62
2022/04/18 16:33:12;;;;;;;;;;;;;;;;;;5035987;28;21810;-61
2022/04/18 16:35:37;;;;;;;;;;;;;;;;;;5021863;28;19935;-62
2022/04/18 16:38:07;;;;;;;;;;;;;;;;;;5043858;28;19917;-62
2022/04/18 16:40:32;;;;;;;;;;;;;;;;;;5012883;28;20003;-62
2022/04/18 16:45:51;;;;;;;;;;;;;;;;;;5043346;28;19920;-62
2022/04/18 16:48:16;;;;;;;;;;;;;;;;;;5015036;28;20020;-62
2022/04/18 16:50:42;;;;;;;;;;;;;;;;;;5043856;28;20019;-62
2022/04/18 16:53:08;;;;;;;;;;;;;;;;;;5027647;28;19924;-62
2022/04/18 16:55:35;;;;;;;;;;;;;;;;;;5023158;28;19924;-61
2022/04/18 16:58:01;;;;;;;;;;;;;;;;;;5011503;28;19931;-62
2022/04/18 17:00:26;;;;;;;;;;;;;;;;;;5042975;28;19916;-64
2022/04/18 17:02:56;;;;;;;;;;;;;;;;;;5043938;28;20003;-62
2022/04/18 17:05:23;;;;;;;;;;;;;;;;;;5042072;28;19916;-63
2022/04/18 17:07:51;;;;;;;;;;;;;;;;;;5042732;28;19924;-62
2022/04/18 17:10:17;;;;;;;;;;;;;;;;;;5029477;28;19935;-62
2022/04/18 17:12:45;;;;;;;;;;;;;;;;;;5007039;28;19917;-64
2022/04/18 17:15:18;;;;;;;;;;;;;;;;;;5024951;28;19917;-63
2022/04/18 17:17:43;;;;;;;;;;;;;;;;;;5043812;28;19930;-63
2022/04/18 17:20:09;;;;;;;;;;;;;;;;;;5043069;28;20969;-64
2022/04/18 17:22:38;;;;;;;;;;;;;;;;;;5029495;28;19968;-63